Accueil
METAR-TAF:

METAR-TAF

Aéroports :

Turin, Italie

latitude: 45-05-20N, longitude: 007-36-20E, altitude: 288 m

Observation

Le bulletin a été fait il y a 1 heure et 29 minutes, à 15:50 UTC
Vent 4 kt de sud/sud-ouest, variant entre sud/sud-est et ouest/sud-ouest
Température 15°C
Humidité 44%
Pression 1015 hPa
Visibilité: 7000 m

METAR: LIMA 051550Z 21004KT 150V250 7000 NSC 15/03 Q1015

Heure: 18:19 (17:19 UTC)


TAF: absent

Observations et prévisions météorologiques de plus de 4000 aéroports (messages METAR et TAF).

Les stations disponibles sont représentées par des disques jaunes et rouges sur la carte.

Passer la souris dessus pour voir le nom de la station.

Cliquer dessus pour voir les observations et prévisions météorologiques.

Pour changer de carte: cliquez sur les boutons verts avec une croix noire pour zoomer, sur le bouton vert avec un tiret pour effectuer un zoom arrière, ou sur les flèches vertes pour les cartes adjacentes.


METAR-TAF: